sensor_id;sensor_type;location;lat;lon;timestamp;P1;durP1;ratioP1;P2;durP2;ratioP2
20022;SDS011;10172;42.054;24.546;2023-07-16T00:00:06;4.03;;;2.25;;
20022;SDS011;10172;42.054;24.546;2023-07-16T00:02:34;2.88;;;1.98;;
20022;SDS011;10172;42.054;24.546;2023-07-16T00:04:59;3.90;;;2.30;;
20022;SDS011;10172;42.054;24.546;2023-07-16T00:07:25;4.57;;;2.00;;
20022;SDS011;10172;42.054;24.546;2023-07-16T00:09:50;4.15;;;2.33;;
20022;SDS011;10172;42.054;24.546;2023-07-16T00:12:16;3.53;;;2.10;;
20022;SDS011;10172;42.054;24.546;2023-07-16T00:14:41;3.88;;;2.40;;
20022;SDS011;10172;42.054;24.546;2023-07-16T00:17:06;4.22;;;2.30;;
20022;SDS011;10172;42.054;24.546;2023-07-16T00:19:32;3.67;;;1.80;;
20022;SDS011;10172;42.054;24.546;2023-07-16T00:21:57;2.83;;;2.03;;
20022;SDS011;10172;42.054;24.546;2023-07-16T00:24:23;4.22;;;2.47;;
20022;SDS011;10172;42.054;24.546;2023-07-16T00:26:48;6.60;;;2.50;;
20022;SDS011;10172;42.054;24.546;2023-07-16T00:29:14;4.75;;;2.78;;
20022;SDS011;10172;42.054;24.546;2023-07-16T00:31:39;4.30;;;2.03;;
20022;SDS011;10172;42.054;24.546;2023-07-16T00:34:05;2.83;;;1.90;;
20022;SDS011;10172;42.054;24.546;2023-07-16T00:36:30;5.05;;;2.10;;
20022;SDS011;10172;42.054;24.546;2023-07-16T00:38:56;3.17;;;1.90;;
20022;SDS011;10172;42.054;24.546;2023-07-16T00:41:21;3.92;;;2.15;;
20022;SDS011;10172;42.054;24.546;2023-07-16T00:43:47;3.05;;;2.08;;
20022;SDS011;10172;42.054;24.546;2023-07-16T00:46:12;3.40;;;1.90;;
20022;SDS011;10172;42.054;24.546;2023-07-16T00:48:38;1.83;;;1.42;;
20022;SDS011;10172;42.054;24.546;2023-07-16T00:51:03;3.85;;;1.83;;
20022;SDS011;10172;42.054;24.546;2023-07-16T00:53:30;5.80;;;2.15;;
20022;SDS011;10172;42.054;24.546;2023-07-16T00:55:55;4.53;;;1.70;;
20022;SDS011;10172;42.054;24.546;2023-07-16T00:58:21;5.70;;;2.17;;
20022;SDS011;10172;42.054;24.546;2023-07-16T01:00:46;3.55;;;2.00;;
20022;SDS011;10172;42.054;24.546;2023-07-16T01:03:13;4.97;;;2.60;;
20022;SDS011;10172;42.054;24.546;2023-07-16T01:05:43;4.05;;;2.10;;
20022;SDS011;10172;42.054;24.546;2023-07-16T01:08:19;4.30;;;2.33;;
20022;SDS011;10172;42.054;24.546;2023-07-16T01:10:52;3.53;;;2.08;;
20022;SDS011;10172;42.054;24.546;2023-07-16T01:13:18;3.15;;;1.92;;
20022;SDS011;10172;42.054;24.546;2023-07-16T01:15:44;2.58;;;1.60;;
20022;SDS011;10172;42.054;24.546;2023-07-16T01:18:10;2.28;;;1.83;;
20022;SDS011;10172;42.054;24.546;2023-07-16T01:20:35;5.10;;;2.05;;
20022;SDS011;10172;42.054;24.546;2023-07-16T01:26:19;3.20;;;2.20;;
20022;SDS011;10172;42.054;24.546;2023-07-16T01:32:02;3.80;;;2.20;;
20022;SDS011;10172;42.054;24.546;2023-07-16T01:34:30;3.03;;;2.03;;
20022;SDS011;10172;42.054;24.546;2023-07-16T01:37:01;4.13;;;2.15;;
20022;SDS011;10172;42.054;24.546;2023-07-16T01:39:28;5.25;;;2.22;;
20022;SDS011;10172;42.054;24.546;2023-07-16T01:41:53;6.22;;;2.45;;
20022;SDS011;10172;42.054;24.546;2023-07-16T01:44:19;3.90;;;2.30;;
20022;SDS011;10172;42.054;24.546;2023-07-16T01:46:46;4.47;;;2.40;;
20022;SDS011;10172;42.054;24.546;2023-07-16T01:49:24;3.72;;;2.00;;
20022;SDS011;10172;42.054;24.546;2023-07-16T01:51:49;3.55;;;2.20;;
20022;SDS011;10172;42.054;24.546;2023-07-16T01:54:15;6.40;;;2.70;;
20022;SDS011;10172;42.054;24.546;2023-07-16T01:56:40;5.88;;;2.40;;
20022;SDS011;10172;42.054;24.546;2023-07-16T01:59:06;4.63;;;2.83;;
20022;SDS011;10172;42.054;24.546;2023-07-16T02:01:31;5.88;;;3.08;;
20022;SDS011;10172;42.054;24.546;2023-07-16T02:03:56;4.28;;;2.42;;
20022;SDS011;10172;42.054;24.546;2023-07-16T02:06:22;3.80;;;2.60;;
20022;SDS011;10172;42.054;24.546;2023-07-16T02:08:47;4.03;;;2.35;;
20022;SDS011;10172;42.054;24.546;2023-07-16T02:11:13;4.32;;;2.30;;
20022;SDS011;10172;42.054;24.546;2023-07-16T02:13:38;4.38;;;2.70;;
20022;SDS011;10172;42.054;24.546;2023-07-16T02:16:04;5.63;;;3.00;;
20022;SDS011;10172;42.054;24.546;2023-07-16T02:18:29;4.75;;;3.00;;
20022;SDS011;10172;42.054;24.546;2023-07-16T02:20:55;4.30;;;2.30;;
20022;SDS011;10172;42.054;24.546;2023-07-16T02:23:20;3.47;;;2.20;;
20022;SDS011;10172;42.054;24.546;2023-07-16T02:25:46;6.32;;;2.63;;
20022;SDS011;10172;42.054;24.546;2023-07-16T02:28:11;2.88;;;2.40;;
20022;SDS011;10172;42.054;24.546;2023-07-16T02:30:37;3.13;;;2.33;;
20022;SDS011;10172;42.054;24.546;2023-07-16T02:33:02;3.30;;;2.30;;
20022;SDS011;10172;42.054;24.546;2023-07-16T02:35:28;4.78;;;2.60;;
20022;SDS011;10172;42.054;24.546;2023-07-16T02:37:53;5.35;;;2.80;;
20022;SDS011;10172;42.054;24.546;2023-07-16T02:40:19;2.92;;;2.03;;
20022;SDS011;10172;42.054;24.546;2023-07-16T02:42:45;3.70;;;2.65;;
20022;SDS011;10172;42.054;24.546;2023-07-16T02:45:10;4.55;;;2.53;;
20022;SDS011;10172;42.054;24.546;2023-07-16T02:47:36;5.70;;;2.92;;
20022;SDS011;10172;42.054;24.546;2023-07-16T02:50:01;4.38;;;2.83;;
20022;SDS011;10172;42.054;24.546;2023-07-16T02:52:27;3.92;;;2.45;;
20022;SDS011;10172;42.054;24.546;2023-07-16T02:54:52;4.88;;;2.92;;
20022;SDS011;10172;42.054;24.546;2023-07-16T02:57:18;6.45;;;3.15;;
20022;SDS011;10172;42.054;24.546;2023-07-16T02:59:43;4.05;;;2.65;;
20022;SDS011;10172;42.054;24.546;2023-07-16T03:02:09;4.78;;;2.90;;
20022;SDS011;10172;42.054;24.546;2023-07-16T03:04:34;5.85;;;2.95;;
20022;SDS011;10172;42.054;24.546;2023-07-16T03:07:00;4.15;;;2.75;;
20022;SDS011;10172;42.054;24.546;2023-07-16T03:09:25;5.72;;;2.80;;
20022;SDS011;10172;42.054;24.546;2023-07-16T03:11:51;5.35;;;2.60;;
20022;SDS011;10172;42.054;24.546;2023-07-16T03:14:16;4.50;;;3.22;;
20022;SDS011;10172;42.054;24.546;2023-07-16T03:16:42;4.05;;;2.72;;
20022;SDS011;10172;42.054;24.546;2023-07-16T03:19:07;6.45;;;3.28;;
20022;SDS011;10172;42.054;24.546;2023-07-16T03:21:32;5.00;;;3.03;;
20022;SDS011;10172;42.054;24.546;2023-07-16T03:23:58;7.88;;;3.00;;
20022;SDS011;10172;42.054;24.546;2023-07-16T03:26:23;6.22;;;3.03;;
20022;SDS011;10172;42.054;24.546;2023-07-16T03:28:49;4.82;;;3.00;;
20022;SDS011;10172;42.054;24.546;2023-07-16T03:31:15;4.72;;;3.15;;
20022;SDS011;10172;42.054;24.546;2023-07-16T03:33:40;8.98;;;3.38;;
20022;SDS011;10172;42.054;24.546;2023-07-16T03:36:06;4.20;;;2.53;;
20022;SDS011;10172;42.054;24.546;2023-07-16T03:38:31;5.28;;;3.35;;
20022;SDS011;10172;42.054;24.546;2023-07-16T03:40:57;4.03;;;2.78;;
20022;SDS011;10172;42.054;24.546;2023-07-16T03:43:22;4.95;;;2.75;;
20022;SDS011;10172;42.054;24.546;2023-07-16T03:45:48;8.27;;;3.47;;
20022;SDS011;10172;42.054;24.546;2023-07-16T03:48:14;4.90;;;3.33;;
20022;SDS011;10172;42.054;24.546;2023-07-16T03:50:39;4.82;;;3.30;;
20022;SDS011;10172;42.054;24.546;2023-07-16T03:53:05;5.45;;;2.53;;
20022;SDS011;10172;42.054;24.546;2023-07-16T03:55:31;4.32;;;2.97;;
20022;SDS011;10172;42.054;24.546;2023-07-16T03:57:56;5.68;;;3.17;;
20022;SDS011;10172;42.054;24.546;2023-07-16T04:00:22;4.40;;;2.97;;
20022;SDS011;10172;42.054;24.546;2023-07-16T04:02:47;4.57;;;2.80;;
20022;SDS011;10172;42.054;24.546;2023-07-16T04:05:12;4.35;;;2.40;;
20022;SDS011;10172;42.054;24.546;2023-07-16T04:07:38;4.43;;;2.60;;
20022;SDS011;10172;42.054;24.546;2023-07-16T04:10:04;5.68;;;2.75;;
20022;SDS011;10172;42.054;24.546;2023-07-16T04:12:29;4.78;;;2.75;;
20022;SDS011;10172;42.054;24.546;2023-07-16T04:14:56;4.55;;;2.83;;
20022;SDS011;10172;42.054;24.546;2023-07-16T04:17:23;5.32;;;2.50;;
20022;SDS011;10172;42.054;24.546;2023-07-16T04:19:49;3.90;;;2.58;;
20022;SDS011;10172;42.054;24.546;2023-07-16T04:22:14;4.22;;;2.90;;
20022;SDS011;10172;42.054;24.546;2023-07-16T04:24:40;6.28;;;2.60;;
20022;SDS011;10172;42.054;24.546;2023-07-16T04:27:05;4.22;;;2.58;;
20022;SDS011;10172;42.054;24.546;2023-07-16T04:29:31;3.45;;;2.50;;
20022;SDS011;10172;42.054;24.546;2023-07-16T04:31:56;4.32;;;2.83;;
20022;SDS011;10172;42.054;24.546;2023-07-16T04:34:22;4.22;;;2.53;;
20022;SDS011;10172;42.054;24.546;2023-07-16T04:36:47;4.47;;;2.70;;
20022;SDS011;10172;42.054;24.546;2023-07-16T04:39:12;4.85;;;2.67;;
20022;SDS011;10172;42.054;24.546;2023-07-16T04:41:38;4.28;;;2.78;;
20022;SDS011;10172;42.054;24.546;2023-07-16T04:44:04;5.45;;;2.88;;
20022;SDS011;10172;42.054;24.546;2023-07-16T04:46:30;5.07;;;2.40;;
20022;SDS011;10172;42.054;24.546;2023-07-16T04:48:56;3.58;;;2.63;;
20022;SDS011;10172;42.054;24.546;2023-07-16T04:51:21;3.90;;;2.80;;
20022;SDS011;10172;42.054;24.546;2023-07-16T04:53:47;4.80;;;2.33;;
20022;SDS011;10172;42.054;24.546;2023-07-16T04:56:14;5.07;;;2.63;;
20022;SDS011;10172;42.054;24.546;2023-07-16T04:58:40;5.97;;;2.97;;
20022;SDS011;10172;42.054;24.546;2023-07-16T05:01:07;5.63;;;2.85;;
20022;SDS011;10172;42.054;24.546;2023-07-16T05:03:33;7.00;;;3.13;;
20022;SDS011;10172;42.054;24.546;2023-07-16T05:05:59;4.18;;;2.75;;
20022;SDS011;10172;42.054;24.546;2023-07-16T05:08:24;4.00;;;2.53;;
20022;SDS011;10172;42.054;24.546;2023-07-16T05:10:50;8.32;;;2.92;;
20022;SDS011;10172;42.054;24.546;2023-07-16T05:13:15;3.60;;;2.35;;
20022;SDS011;10172;42.054;24.546;2023-07-16T05:15:43;3.58;;;2.50;;
20022;SDS011;10172;42.054;24.546;2023-07-16T05:18:08;5.68;;;2.58;;
20022;SDS011;10172;42.054;24.546;2023-07-16T05:20:34;6.43;;;3.22;;
20022;SDS011;10172;42.054;24.546;2023-07-16T05:22:59;4.15;;;2.45;;
20022;SDS011;10172;42.054;24.546;2023-07-16T05:25:25;5.88;;;3.00;;
20022;SDS011;10172;42.054;24.546;2023-07-16T05:27:50;5.72;;;2.95;;
20022;SDS011;10172;42.054;24.546;2023-07-16T05:30:16;4.78;;;2.85;;
20022;SDS011;10172;42.054;24.546;2023-07-16T05:32:41;7.25;;;3.00;;
20022;SDS011;10172;42.054;24.546;2023-07-16T05:35:07;5.80;;;3.13;;
20022;SDS011;10172;42.054;24.546;2023-07-16T05:37:32;5.15;;;2.70;;
20022;SDS011;10172;42.054;24.546;2023-07-16T05:39:58;6.60;;;3.15;;
20022;SDS011;10172;42.054;24.546;2023-07-16T05:42:23;4.05;;;2.58;;
20022;SDS011;10172;42.054;24.546;2023-07-16T05:44:49;3.53;;;2.22;;
20022;SDS011;10172;42.054;24.546;2023-07-16T05:47:14;4.63;;;2.70;;
20022;SDS011;10172;42.054;24.546;2023-07-16T05:49:40;5.38;;;2.67;;
20022;SDS011;10172;42.054;24.546;2023-07-16T05:52:05;5.93;;;3.40;;
20022;SDS011;10172;42.054;24.546;2023-07-16T05:54:31;4.03;;;2.70;;
20022;SDS011;10172;42.054;24.546;2023-07-16T05:56:57;3.72;;;2.42;;
20022;SDS011;10172;42.054;24.546;2023-07-16T05:59:22;5.20;;;2.53;;
20022;SDS011;10172;42.054;24.546;2023-07-16T06:01:48;4.93;;;2.45;;
20022;SDS011;10172;42.054;24.546;2023-07-16T06:04:13;4.10;;;2.58;;
20022;SDS011;10172;42.054;24.546;2023-07-16T06:06:39;4.63;;;2.63;;
20022;SDS011;10172;42.054;24.546;2023-07-16T06:09:04;3.22;;;2.50;;
20022;SDS011;10172;42.054;24.546;2023-07-16T06:11:30;4.25;;;2.53;;
20022;SDS011;10172;42.054;24.546;2023-07-16T06:13:55;3.00;;;2.20;;
20022;SDS011;10172;42.054;24.546;2023-07-16T06:16:21;5.97;;;2.58;;
20022;SDS011;10172;42.054;24.546;2023-07-16T06:18:46;5.35;;;2.58;;
20022;SDS011;10172;42.054;24.546;2023-07-16T06:21:12;4.07;;;2.60;;
20022;SDS011;10172;42.054;24.546;2023-07-16T06:23:38;4.68;;;2.58;;
20022;SDS011;10172;42.054;24.546;2023-07-16T06:26:03;4.70;;;2.80;;
20022;SDS011;10172;42.054;24.546;2023-07-16T06:28:29;5.05;;;2.45;;
20022;SDS011;10172;42.054;24.546;2023-07-16T06:30:54;3.13;;;2.30;;
20022;SDS011;10172;42.054;24.546;2023-07-16T06:33:20;7.97;;;2.65;;
20022;SDS011;10172;42.054;24.546;2023-07-16T06:35:46;3.50;;;2.13;;
20022;SDS011;10172;42.054;24.546;2023-07-16T06:38:13;3.95;;;2.30;;
20022;SDS011;10172;42.054;24.546;2023-07-16T06:40:39;3.88;;;2.33;;
20022;SDS011;10172;42.054;24.546;2023-07-16T06:43:10;3.53;;;2.55;;
20022;SDS011;10172;42.054;24.546;2023-07-16T06:45:35;3.08;;;2.05;;
20022;SDS011;10172;42.054;24.546;2023-07-16T06:48:01;3.50;;;2.05;;
20022;SDS011;10172;42.054;24.546;2023-07-16T06:50:26;4.28;;;2.22;;
20022;SDS011;10172;42.054;24.546;2023-07-16T06:52:52;3.47;;;2.30;;
20022;SDS011;10172;42.054;24.546;2023-07-16T06:55:17;4.78;;;2.45;;
20022;SDS011;10172;42.054;24.546;2023-07-16T06:57:43;4.20;;;2.63;;
20022;SDS011;10172;42.054;24.546;2023-07-16T07:00:08;3.42;;;2.20;;
20022;SDS011;10172;42.054;24.546;2023-07-16T07:02:37;6.05;;;2.47;;
20022;SDS011;10172;42.054;24.546;2023-07-16T07:05:02;5.07;;;2.53;;
20022;SDS011;10172;42.054;24.546;2023-07-16T07:07:28;3.53;;;2.33;;
20022;SDS011;10172;42.054;24.546;2023-07-16T07:09:53;3.45;;;2.63;;
20022;SDS011;10172;42.054;24.546;2023-07-16T07:12:19;5.40;;;2.17;;
20022;SDS011;10172;42.054;24.546;2023-07-16T07:14:45;5.00;;;2.15;;
20022;SDS011;10172;42.054;24.546;2023-07-16T07:17:12;5.78;;;2.75;;
20022;SDS011;10172;42.054;24.546;2023-07-16T07:19:37;3.33;;;2.30;;
20022;SDS011;10172;42.054;24.546;2023-07-16T07:22:03;3.65;;;2.45;;
20022;SDS011;10172;42.054;24.546;2023-07-16T07:24:28;3.78;;;2.70;;
20022;SDS011;10172;42.054;24.546;2023-07-16T07:26:54;4.82;;;2.80;;
20022;SDS011;10172;42.054;24.546;2023-07-16T07:29:19;5.35;;;2.30;;
20022;SDS011;10172;42.054;24.546;2023-07-16T07:31:45;5.13;;;3.00;;
20022;SDS011;10172;42.054;24.546;2023-07-16T07:34:10;5.05;;;2.58;;
20022;SDS011;10172;42.054;24.546;2023-07-16T07:36:36;4.18;;;2.33;;
20022;SDS011;10172;42.054;24.546;2023-07-16T07:39:01;4.07;;;2.58;;
20022;SDS011;10172;42.054;24.546;2023-07-16T07:41:26;3.33;;;2.45;;
20022;SDS011;10172;42.054;24.546;2023-07-16T07:43:52;3.55;;;2.22;;
20022;SDS011;10172;42.054;24.546;2023-07-16T07:46:17;3.95;;;2.70;;
20022;SDS011;10172;42.054;24.546;2023-07-16T07:48:43;3.30;;;2.72;;
20022;SDS011;10172;42.054;24.546;2023-07-16T07:51:08;5.50;;;2.90;;
20022;SDS011;10172;42.054;24.546;2023-07-16T07:53:34;3.72;;;2.75;;
20022;SDS011;10172;42.054;24.546;2023-07-16T07:55:59;5.15;;;2.63;;
20022;SDS011;10172;42.054;24.546;2023-07-16T07:58:25;4.53;;;2.75;;
20022;SDS011;10172;42.054;24.546;2023-07-16T08:00:50;5.28;;;3.17;;
20022;SDS011;10172;42.054;24.546;2023-07-16T08:03:15;4.65;;;3.08;;
20022;SDS011;10172;42.054;24.546;2023-07-16T08:05:41;4.30;;;3.28;;
20022;SDS011;10172;42.054;24.546;2023-07-16T08:08:06;3.92;;;2.55;;
20022;SDS011;10172;42.054;24.546;2023-07-16T08:10:33;3.85;;;2.85;;
20022;SDS011;10172;42.054;24.546;2023-07-16T08:12:58;7.00;;;3.20;;
20022;SDS011;10172;42.054;24.546;2023-07-16T08:15:24;5.47;;;2.92;;
20022;SDS011;10172;42.054;24.546;2023-07-16T08:17:49;6.25;;;2.70;;
20022;SDS011;10172;42.054;24.546;2023-07-16T08:20:15;4.43;;;3.10;;
20022;SDS011;10172;42.054;24.546;2023-07-16T08:22:40;5.40;;;2.83;;
20022;SDS011;10172;42.054;24.546;2023-07-16T08:25:06;4.82;;;3.00;;
20022;SDS011;10172;42.054;24.546;2023-07-16T08:27:32;5.10;;;2.97;;
20022;SDS011;10172;42.054;24.546;2023-07-16T08:29:59;6.80;;;2.72;;
20022;SDS011;10172;42.054;24.546;2023-07-16T08:32:25;12.27;;;3.08;;
20022;SDS011;10172;42.054;24.546;2023-07-16T08:34:50;5.20;;;3.30;;
20022;SDS011;10172;42.054;24.546;2023-07-16T08:37:16;5.32;;;2.95;;
20022;SDS011;10172;42.054;24.546;2023-07-16T08:39:41;3.45;;;2.67;;
20022;SDS011;10172;42.054;24.546;2023-07-16T08:42:09;4.03;;;2.63;;
20022;SDS011;10172;42.054;24.546;2023-07-16T08:44:38;4.82;;;2.97;;
20022;SDS011;10172;42.054;24.546;2023-07-16T08:47:05;3.83;;;2.63;;
20022;SDS011;10172;42.054;24.546;2023-07-16T08:49:31;5.55;;;2.53;;
20022;SDS011;10172;42.054;24.546;2023-07-16T08:51:58;6.13;;;3.03;;
20022;SDS011;10172;42.054;24.546;2023-07-16T08:54:26;3.63;;;2.53;;
20022;SDS011;10172;42.054;24.546;2023-07-16T08:56:51;5.68;;;3.33;;
20022;SDS011;10172;42.054;24.546;2023-07-16T08:59:17;3.95;;;2.90;;
20022;SDS011;10172;42.054;24.546;2023-07-16T09:01:43;6.05;;;3.55;;
20022;SDS011;10172;42.054;24.546;2023-07-16T09:04:10;6.05;;;2.90;;
20022;SDS011;10172;42.054;24.546;2023-07-16T09:06:36;5.43;;;3.10;;
20022;SDS011;10172;42.054;24.546;2023-07-16T09:09:01;5.63;;;3.10;;
20022;SDS011;10172;42.054;24.546;2023-07-16T09:11:27;5.10;;;3.00;;
20022;SDS011;10172;42.054;24.546;2023-07-16T09:13:52;4.32;;;3.22;;
20022;SDS011;10172;42.054;24.546;2023-07-16T09:16:18;3.47;;;2.80;;
20022;SDS011;10172;42.054;24.546;2023-07-16T09:18:45;8.05;;;4.05;;
20022;SDS011;10172;42.054;24.546;2023-07-16T09:21:11;5.60;;;3.00;;
20022;SDS011;10172;42.054;24.546;2023-07-16T09:23:37;5.70;;;3.70;;
20022;SDS011;10172;42.054;24.546;2023-07-16T09:26:03;4.28;;;2.95;;
20022;SDS011;10172;42.054;24.546;2023-07-16T09:28:31;5.68;;;3.40;;
20022;SDS011;10172;42.054;24.546;2023-07-16T09:31:03;4.13;;;3.03;;
20022;SDS011;10172;42.054;24.546;2023-07-16T09:33:32;5.50;;;3.28;;
20022;SDS011;10172;42.054;24.546;2023-07-16T09:35:58;5.25;;;3.17;;
20022;SDS011;10172;42.054;24.546;2023-07-16T09:38:25;5.38;;;3.67;;
20022;SDS011;10172;42.054;24.546;2023-07-16T09:40:52;4.68;;;3.30;;
20022;SDS011;10172;42.054;24.546;2023-07-16T09:43:20;5.88;;;3.65;;
20022;SDS011;10172;42.054;24.546;2023-07-16T09:45:47;6.70;;;3.42;;
20022;SDS011;10172;42.054;24.546;2023-07-16T09:48:12;4.43;;;3.05;;
20022;SDS011;10172;42.054;24.546;2023-07-16T09:50:39;8.73;;;3.85;;
20022;SDS011;10172;42.054;24.546;2023-07-16T09:53:13;5.15;;;3.10;;
20022;SDS011;10172;42.054;24.546;2023-07-16T09:55:41;5.70;;;3.70;;
20022;SDS011;10172;42.054;24.546;2023-07-16T09:58:07;3.92;;;3.20;;
20022;SDS011;10172;42.054;24.546;2023-07-16T10:00:34;6.70;;;3.45;;
20022;SDS011;10172;42.054;24.546;2023-07-16T10:03:01;5.93;;;3.22;;
20022;SDS011;10172;42.054;24.546;2023-07-16T10:05:28;9.23;;;3.50;;
20022;SDS011;10172;42.054;24.546;2023-07-16T10:07:57;4.28;;;3.20;;
20022;SDS011;10172;42.054;24.546;2023-07-16T10:10:40;8.55;;;4.07;;
20022;SDS011;10172;42.054;24.546;2023-07-16T10:13:08;11.65;;;3.95;;
20022;SDS011;10172;42.054;24.546;2023-07-16T10:15:36;4.88;;;3.33;;
20022;SDS011;10172;42.054;24.546;2023-07-16T10:18:01;7.07;;;3.75;;
20022;SDS011;10172;42.054;24.546;2023-07-16T10:20:28;4.60;;;3.50;;
20022;SDS011;10172;42.054;24.546;2023-07-16T10:23:12;5.82;;;3.40;;
20022;SDS011;10172;42.054;24.546;2023-07-16T10:25:38;7.22;;;3.63;;
20022;SDS011;10172;42.054;24.546;2023-07-16T10:28:04;6.95;;;3.88;;
20022;SDS011;10172;42.054;24.546;2023-07-16T10:30:30;5.93;;;3.08;;
20022;SDS011;10172;42.054;24.546;2023-07-16T10:32:56;5.20;;;3.80;;
20022;SDS011;10172;42.054;24.546;2023-07-16T10:35:21;5.85;;;3.67;;
20022;SDS011;10172;42.054;24.546;2023-07-16T10:37:47;5.10;;;3.60;;
20022;SDS011;10172;42.054;24.546;2023-07-16T10:40:13;7.20;;;3.83;;
20022;SDS011;10172;42.054;24.546;2023-07-16T10:42:40;4.90;;;3.22;;
20022;SDS011;10172;42.054;24.546;2023-07-16T10:45:08;8.85;;;3.28;;
20022;SDS011;10172;42.054;24.546;2023-07-16T10:47:35;8.45;;;3.40;;
20022;SDS011;10172;42.054;24.546;2023-07-16T10:50:08;5.68;;;3.25;;
20022;SDS011;10172;42.054;24.546;2023-07-16T10:52:37;5.57;;;3.63;;
20022;SDS011;10172;42.054;24.546;2023-07-16T10:55:03;4.13;;;3.20;;
20022;SDS011;10172;42.054;24.546;2023-07-16T10:57:29;4.65;;;3.30;;
20022;SDS011;10172;42.054;24.546;2023-07-16T10:59:56;4.72;;;3.20;;
20022;SDS011;10172;42.054;24.546;2023-07-16T11:02:23;7.85;;;3.63;;
20022;SDS011;10172;42.054;24.546;2023-07-16T11:04:50;6.38;;;3.60;;
20022;SDS011;10172;42.054;24.546;2023-07-16T11:07:20;7.28;;;3.70;;
20022;SDS011;10172;42.054;24.546;2023-07-16T11:09:55;5.38;;;3.45;;
20022;SDS011;10172;42.054;24.546;2023-07-16T11:12:21;5.68;;;3.42;;
20022;SDS011;10172;42.054;24.546;2023-07-16T11:14:49;5.28;;;3.70;;
20022;SDS011;10172;42.054;24.546;2023-07-16T11:17:16;5.50;;;3.50;;
20022;SDS011;10172;42.054;24.546;2023-07-16T11:19:46;4.78;;;3.70;;
20022;SDS011;10172;42.054;24.546;2023-07-16T11:22:13;4.95;;;3.40;;
20022;SDS011;10172;42.054;24.546;2023-07-16T11:24:40;4.90;;;3.72;;
20022;SDS011;10172;42.054;24.546;2023-07-16T11:27:14;6.18;;;3.50;;
20022;SDS011;10172;42.054;24.546;2023-07-16T11:29:47;6.32;;;3.85;;
20022;SDS011;10172;42.054;24.546;2023-07-16T11:34:53;6.28;;;3.78;;
20022;SDS011;10172;42.054;24.546;2023-07-16T11:37:20;6.47;;;3.28;;
20022;SDS011;10172;42.054;24.546;2023-07-16T11:39:46;7.65;;;4.50;;
20022;SDS011;10172;42.054;24.546;2023-07-16T11:42:12;5.63;;;3.42;;
20022;SDS011;10172;42.054;24.546;2023-07-16T11:44:38;6.70;;;3.90;;
20022;SDS011;10172;42.054;24.546;2023-07-16T11:47:03;6.25;;;4.43;;
20022;SDS011;10172;42.054;24.546;2023-07-16T11:49:29;6.38;;;3.83;;
20022;SDS011;10172;42.054;24.546;2023-07-16T11:51:56;7.78;;;4.40;;
20022;SDS011;10172;42.054;24.546;2023-07-16T11:54:22;7.65;;;3.95;;
20022;SDS011;10172;42.054;24.546;2023-07-16T11:56:47;9.15;;;4.75;;
20022;SDS011;10172;42.054;24.546;2023-07-16T11:59:13;6.25;;;3.78;;
20022;SDS011;10172;42.054;24.546;2023-07-16T12:01:38;6.53;;;4.25;;
20022;SDS011;10172;42.054;24.546;2023-07-16T12:04:04;6.05;;;4.03;;
20022;SDS011;10172;42.054;24.546;2023-07-16T12:06:29;5.05;;;3.50;;
20022;SDS011;10172;42.054;24.546;2023-07-16T12:08:55;9.18;;;4.65;;
20022;SDS011;10172;42.054;24.546;2023-07-16T12:11:20;8.65;;;4.10;;
20022;SDS011;10172;42.054;24.546;2023-07-16T12:13:47;5.07;;;3.58;;
20022;SDS011;10172;42.054;24.546;2023-07-16T12:16:12;3.85;;;3.33;;
20022;SDS011;10172;42.054;24.546;2023-07-16T12:18:38;10.75;;;4.93;;
20022;SDS011;10172;42.054;24.546;2023-07-16T12:21:03;7.03;;;4.05;;
20022;SDS011;10172;42.054;24.546;2023-07-16T12:23:29;6.88;;;4.05;;
20022;SDS011;10172;42.054;24.546;2023-07-16T12:25:55;7.78;;;3.63;;
20022;SDS011;10172;42.054;24.546;2023-07-16T12:28:20;6.10;;;3.88;;
20022;SDS011;10172;42.054;24.546;2023-07-16T12:30:46;6.70;;;3.88;;
20022;SDS011;10172;42.054;24.546;2023-07-16T12:33:11;6.78;;;4.53;;
20022;SDS011;10172;42.054;24.546;2023-07-16T12:35:37;6.95;;;4.45;;
20022;SDS011;10172;42.054;24.546;2023-07-16T12:38:02;7.30;;;4.47;;
20022;SDS011;10172;42.054;24.546;2023-07-16T12:40:29;7.10;;;4.43;;
20022;SDS011;10172;42.054;24.546;2023-07-16T12:42:54;6.32;;;3.97;;
20022;SDS011;10172;42.054;24.546;2023-07-16T12:45:20;7.38;;;4.55;;
20022;SDS011;10172;42.054;24.546;2023-07-16T12:47:45;7.45;;;4.40;;
20022;SDS011;10172;42.054;24.546;2023-07-16T12:50:11;6.63;;;4.63;;
20022;SDS011;10172;42.054;24.546;2023-07-16T12:52:36;6.57;;;4.10;;
20022;SDS011;10172;42.054;24.546;2023-07-16T12:55:02;7.05;;;4.50;;
20022;SDS011;10172;42.054;24.546;2023-07-16T12:57:28;6.50;;;4.32;;
20022;SDS011;10172;42.054;24.546;2023-07-16T12:59:53;7.32;;;4.10;;
20022;SDS011;10172;42.054;24.546;2023-07-16T13:02:19;5.25;;;3.67;;
20022;SDS011;10172;42.054;24.546;2023-07-16T13:04:44;5.40;;;4.13;;
20022;SDS011;10172;42.054;24.546;2023-07-16T13:07:10;5.28;;;3.85;;
20022;SDS011;10172;42.054;24.546;2023-07-16T13:09:35;9.77;;;4.72;;
20022;SDS011;10172;42.054;24.546;2023-07-16T13:12:01;10.57;;;4.93;;
20022;SDS011;10172;42.054;24.546;2023-07-16T13:14:26;10.25;;;4.25;;
20022;SDS011;10172;42.054;24.546;2023-07-16T13:16:52;6.90;;;4.28;;
20022;SDS011;10172;42.054;24.546;2023-07-16T13:19:17;7.18;;;3.90;;
20022;SDS011;10172;42.054;24.546;2023-07-16T13:21:42;6.45;;;4.15;;
20022;SDS011;10172;42.054;24.546;2023-07-16T13:24:08;6.10;;;3.60;;
20022;SDS011;10172;42.054;24.546;2023-07-16T13:26:33;5.35;;;3.55;;
20022;SDS011;10172;42.054;24.546;2023-07-16T13:28:59;6.78;;;4.82;;
20022;SDS011;10172;42.054;24.546;2023-07-16T13:31:24;8.70;;;4.20;;
20022;SDS011;10172;42.054;24.546;2023-07-16T13:33:50;6.25;;;4.43;;
20022;SDS011;10172;42.054;24.546;2023-07-16T13:36:15;8.07;;;4.78;;
20022;SDS011;10172;42.054;24.546;2023-07-16T13:38:41;7.85;;;4.78;;
20022;SDS011;10172;42.054;24.546;2023-07-16T13:41:06;6.95;;;4.25;;
20022;SDS011;10172;42.054;24.546;2023-07-16T13:43:32;6.68;;;3.95;;
20022;SDS011;10172;42.054;24.546;2023-07-16T13:45:57;5.68;;;3.72;;
20022;SDS011;10172;42.054;24.546;2023-07-16T13:48:23;10.70;;;4.07;;
20022;SDS011;10172;42.054;24.546;2023-07-16T13:50:48;5.55;;;4.00;;
20022;SDS011;10172;42.054;24.546;2023-07-16T13:53:14;7.28;;;4.28;;
20022;SDS011;10172;42.054;24.546;2023-07-16T13:55:40;9.93;;;4.28;;
20022;SDS011;10172;42.054;24.546;2023-07-16T13:58:05;6.35;;;3.90;;
20022;SDS011;10172;42.054;24.546;2023-07-16T14:00:31;5.65;;;4.45;;
20022;SDS011;10172;42.054;24.546;2023-07-16T14:02:56;5.97;;;4.50;;
20022;SDS011;10172;42.054;24.546;2023-07-16T14:05:23;6.80;;;4.25;;
20022;SDS011;10172;42.054;24.546;2023-07-16T14:07:49;6.63;;;4.28;;
20022;SDS011;10172;42.054;24.546;2023-07-16T14:10:15;7.15;;;4.25;;
20022;SDS011;10172;42.054;24.546;2023-07-16T14:12:41;7.95;;;4.28;;
20022;SDS011;10172;42.054;24.546;2023-07-16T14:15:06;6.13;;;4.22;;
20022;SDS011;10172;42.054;24.546;2023-07-16T14:17:32;14.18;;;5.40;;
20022;SDS011;10172;42.054;24.546;2023-07-16T14:19:58;6.63;;;4.75;;
20022;SDS011;10172;42.054;24.546;2023-07-16T14:22:23;9.73;;;4.97;;
20022;SDS011;10172;42.054;24.546;2023-07-16T14:24:52;11.10;;;4.50;;
20022;SDS011;10172;42.054;24.546;2023-07-16T14:27:18;7.13;;;4.35;;
20022;SDS011;10172;42.054;24.546;2023-07-16T14:29:45;7.78;;;4.63;;
20022;SDS011;10172;42.054;24.546;2023-07-16T14:32:10;9.32;;;4.60;;
20022;SDS011;10172;42.054;24.546;2023-07-16T14:34:36;7.15;;;4.95;;